createdAt,value
2018-05-06T00:01:56.264Z,12.47
2018-05-06T00:04:23.759Z,12.49
2018-05-06T00:06:51.290Z,12.46
2018-05-06T00:09:18.776Z,12.44
2018-05-06T00:11:46.231Z,12.45
2018-05-06T00:14:13.722Z,12.43
2018-05-06T00:16:41.210Z,12.43
2018-05-06T00:19:08.655Z,12.41
2018-05-06T00:21:36.140Z,12.39
2018-05-06T00:24:03.684Z,12.36
2018-05-06T00:26:31.280Z,12.34
2018-05-06T00:28:58.755Z,12.33
2018-05-06T00:31:26.295Z,12.29
2018-05-06T00:33:53.782Z,12.29
2018-05-06T00:36:21.268Z,12.27
2018-05-06T00:38:48.768Z,12.24
2018-05-06T00:41:16.280Z,12.20
2018-05-06T00:43:43.940Z,12.15
2018-05-06T00:46:11.441Z,12.13
2018-05-06T00:48:38.967Z,12.12
2018-05-06T00:51:06.540Z,12.09
2018-05-06T00:53:34.039Z,12.06
2018-05-06T00:56:01.638Z,12.01
2018-05-06T00:58:29.119Z,12.00
2018-05-06T01:00:56.629Z,12.00
2018-05-06T01:03:24.122Z,11.99
2018-05-06T01:05:51.579Z,11.97
2018-05-06T01:08:19.075Z,11.96
2018-05-06T01:10:46.580Z,11.94
2018-05-06T01:13:14.146Z,11.92
2018-05-06T01:15:41.636Z,11.92
2018-05-06T01:18:09.204Z,11.89
2018-05-06T01:20:36.688Z,11.88
2018-05-06T01:23:04.144Z,11.86
2018-05-06T01:25:31.646Z,11.84
2018-05-06T01:27:59.100Z,11.84
2018-05-06T01:30:26.611Z,11.84
2018-05-06T01:32:54.092Z,11.86
2018-05-06T01:35:21.559Z,11.83
2018-05-06T01:37:49.041Z,11.82
2018-05-06T01:40:16.553Z,11.80
2018-05-06T01:42:44.012Z,11.74
2018-05-06T01:45:11.456Z,11.72
2018-05-06T01:47:38.941Z,11.71
2018-05-06T01:50:06.415Z,11.68
2018-05-06T01:52:33.900Z,11.68
2018-05-06T01:55:01.419Z,11.65
2018-05-06T01:57:28.885Z,11.65
2018-05-06T01:59:57.212Z,11.64
2018-05-06T02:02:24.704Z,11.61
2018-05-06T02:04:52.200Z,11.60
2018-05-06T02:07:19.652Z,11.58
2018-05-06T02:09:47.322Z,11.55
2018-05-06T02:12:14.840Z,11.54
2018-05-06T02:14:42.341Z,11.54
2018-05-06T02:17:09.830Z,11.53
2018-05-06T02:19:37.285Z,11.51
2018-05-06T02:22:04.806Z,11.48
2018-05-06T02:24:32.326Z,11.44
2018-05-06T02:27:00.753Z,11.42
2018-05-06T02:29:28.239Z,11.39
2018-05-06T02:31:55.693Z,11.38
2018-05-06T02:34:23.155Z,11.38
2018-05-06T02:36:50.617Z,11.35
2018-05-06T02:39:18.069Z,11.35
2018-05-06T02:41:45.567Z,11.36
2018-05-06T02:44:13.079Z,11.37
2018-05-06T02:46:40.531Z,11.36
2018-05-06T02:49:08.011Z,11.29
2018-05-06T02:51:35.629Z,11.22
2018-05-06T02:54:03.087Z,11.15
2018-05-06T02:56:30.604Z,11.10
2018-05-06T02:58:58.170Z,11.04
2018-05-06T03:01:25.619Z,11.02
2018-05-06T03:03:53.096Z,11.02
2018-05-06T03:06:20.637Z,11.00
2018-05-06T03:08:48.114Z,10.98
2018-05-06T03:11:15.692Z,10.92
2018-05-06T03:13:43.249Z,10.87
2018-05-06T03:16:10.708Z,10.85
2018-05-06T03:18:38.194Z,10.83
2018-05-06T03:21:05.694Z,10.82
2018-05-06T03:23:33.169Z,10.85
2018-05-06T03:26:00.658Z,10.82
2018-05-06T03:28:28.149Z,10.78
2018-05-06T03:30:55.659Z,10.76
2018-05-06T03:33:23.160Z,10.75
2018-05-06T03:35:50.635Z,10.73
2018-05-06T03:38:18.089Z,10.70
2018-05-06T03:40:45.599Z,10.72
2018-05-06T03:43:13.063Z,10.70
2018-05-06T03:45:40.523Z,10.71
2018-05-06T03:48:07.980Z,10.71
2018-05-06T03:50:35.488Z,10.72
2018-05-06T03:53:02.935Z,10.68
2018-05-06T03:55:30.524Z,10.69
2018-05-06T03:58:09.811Z,10.70
2018-05-06T04:00:42.154Z,10.65
2018-05-06T04:03:09.681Z,10.70
2018-05-06T04:05:37.177Z,10.88
2018-05-06T04:08:04.665Z,11.12
2018-05-06T04:10:32.151Z,11.16
2018-05-06T04:12:59.597Z,11.16
2018-05-06T04:15:27.111Z,11.22
2018-05-06T04:17:54.641Z,11.38
2018-05-06T04:20:22.088Z,11.24
2018-05-06T04:22:49.532Z,11.25
2018-05-06T04:25:17.043Z,11.36
2018-05-06T04:27:44.534Z,11.52
2018-05-06T04:30:12.018Z,11.68
2018-05-06T04:32:39.517Z,11.69
2018-05-06T04:35:07.003Z,11.63
2018-05-06T04:37:34.489Z,11.55
2018-05-06T04:40:02.057Z,11.57
2018-05-06T04:42:29.522Z,12.31
2018-05-06T04:44:57.007Z,14.17
2018-05-06T04:47:24.510Z,15.86
2018-05-06T04:49:52.165Z,16.97
2018-05-06T04:52:19.652Z,17.72
2018-05-06T04:54:47.229Z,18.43
2018-05-06T04:57:14.745Z,18.10
2018-05-06T04:59:42.240Z,17.04
2018-05-06T05:02:09.760Z,17.39
2018-05-06T05:04:37.268Z,16.16
2018-05-06T05:07:04.746Z,14.87
2018-05-06T05:09:32.288Z,14.17
2018-05-06T05:11:59.772Z,13.68
2018-05-06T05:14:27.347Z,13.33
2018-05-06T05:16:54.799Z,13.21
2018-05-06T05:19:22.245Z,13.04
2018-05-06T05:21:49.745Z,12.88
2018-05-06T05:24:17.207Z,12.75
2018-05-06T05:26:44.690Z,12.75
2018-05-06T05:29:12.141Z,12.86
2018-05-06T05:31:39.648Z,12.90
2018-05-06T05:34:07.183Z,12.96
2018-05-06T05:36:34.649Z,12.83
2018-05-06T05:39:02.170Z,12.58
2018-05-06T05:41:29.642Z,12.64
2018-05-06T05:43:57.128Z,12.72
2018-05-06T05:46:24.650Z,12.90
2018-05-06T05:48:52.120Z,12.96
2018-05-06T05:51:19.611Z,12.89
2018-05-06T05:53:47.071Z,12.87
2018-05-06T05:56:14.524Z,12.91
2018-05-06T05:58:42.019Z,13.02
2018-05-06T06:01:09.511Z,13.14
2018-05-06T06:03:36.981Z,13.15
2018-05-06T06:06:04.465Z,13.14
2018-05-06T06:08:31.934Z,13.24
2018-05-06T06:10:59.384Z,13.42
2018-05-06T06:13:26.867Z,13.38
2018-05-06T06:15:54.354Z,13.41
2018-05-06T06:18:21.847Z,13.56
2018-05-06T06:20:49.336Z,13.84
2018-05-06T06:23:16.865Z,14.12
2018-05-06T06:25:44.346Z,14.25
2018-05-06T06:28:11.858Z,14.47
2018-05-06T06:30:39.351Z,14.55
2018-05-06T06:33:06.923Z,14.75
2018-05-06T06:35:34.505Z,14.95
2018-05-06T06:38:01.971Z,15.04
2018-05-06T06:40:29.611Z,15.11
2018-05-06T06:42:57.113Z,15.32
2018-05-06T06:45:24.634Z,15.51
2018-05-06T06:47:52.161Z,15.43
2018-05-06T06:50:19.639Z,15.45
2018-05-06T06:52:47.153Z,15.49
2018-05-06T06:55:14.665Z,15.43
2018-05-06T06:57:42.145Z,15.58
2018-05-06T07:00:09.632Z,15.60
2018-05-06T07:02:37.180Z,15.51
2018-05-06T07:05:04.666Z,15.73
2018-05-06T07:07:32.228Z,15.82
2018-05-06T07:09:59.736Z,15.58
2018-05-06T07:12:27.192Z,15.41
2018-05-06T07:14:54.717Z,15.45
2018-05-06T07:17:22.169Z,15.64
2018-05-06T07:19:49.654Z,15.95
2018-05-06T07:22:17.137Z,16.16
2018-05-06T07:24:44.626Z,16.23
2018-05-06T07:27:12.132Z,15.96
2018-05-06T07:29:39.665Z,15.83
2018-05-06T07:32:07.187Z,15.79
2018-05-06T07:34:34.691Z,16.03
2018-05-06T07:37:02.225Z,16.31
2018-05-06T07:39:29.688Z,16.55
2018-05-06T07:41:57.259Z,16.78
2018-05-06T07:44:24.795Z,16.95
2018-05-06T07:46:52.275Z,17.07
2018-05-06T07:49:19.813Z,17.17
2018-05-06T07:51:47.283Z,17.31
2018-05-06T07:54:14.807Z,17.45
2018-05-06T07:56:42.382Z,17.68
2018-05-06T07:59:09.862Z,17.75
2018-05-06T08:01:37.321Z,17.50
2018-05-06T08:04:04.849Z,17.54
2018-05-06T08:06:32.419Z,17.48
2018-05-06T08:08:59.915Z,17.21
2018-05-06T08:11:27.397Z,17.20
2018-05-06T08:13:54.886Z,17.35
2018-05-06T08:16:22.438Z,17.25
2018-05-06T08:18:49.948Z,17.30
2018-05-06T08:21:17.485Z,17.59
2018-05-06T08:23:44.942Z,17.83
2018-05-06T08:26:12.504Z,17.76
2018-05-06T08:28:39.982Z,17.78
2018-05-06T08:31:07.486Z,18.06
2018-05-06T08:33:34.991Z,18.23
2018-05-06T08:36:02.500Z,18.14
2018-05-06T08:38:30.018Z,18.07
2018-05-06T08:40:57.556Z,18.33
2018-05-06T08:43:25.060Z,18.25
2018-05-06T08:45:52.629Z,18.12
2018-05-06T08:48:20.552Z,18.05
2018-05-06T08:50:48.036Z,18.09
2018-05-06T08:53:15.531Z,18.17
2018-05-06T08:55:43.040Z,18.28
2018-05-06T08:58:10.490Z,18.20
2018-05-06T09:00:38.050Z,18.27
2018-05-06T09:03:05.590Z,18.29
2018-05-06T09:05:33.100Z,18.49
2018-05-06T09:08:00.591Z,18.85
2018-05-06T09:10:28.047Z,18.71
2018-05-06T09:12:55.556Z,18.45
2018-05-06T09:15:23.013Z,18.28
2018-05-06T09:17:50.472Z,18.29
2018-05-06T09:20:18.017Z,18.46
2018-05-06T09:22:45.499Z,18.49
2018-05-06T09:25:13.028Z,18.47
2018-05-06T09:27:40.481Z,18.49
2018-05-06T09:30:08.005Z,18.61
2018-05-06T09:32:35.570Z,18.51
2018-05-06T09:35:03.054Z,18.60
2018-05-06T09:37:30.528Z,18.94
2018-05-06T09:39:58.032Z,18.93
2018-05-06T09:42:25.807Z,18.95
2018-05-06T09:44:53.251Z,18.90
2018-05-06T09:47:20.718Z,18.92
2018-05-06T09:49:48.193Z,19.06
2018-05-06T09:52:15.695Z,19.04
2018-05-06T09:54:43.199Z,18.90
2018-05-06T09:57:10.763Z,18.90
2018-05-06T09:59:38.274Z,18.91
2018-05-06T10:02:05.880Z,19.08
2018-05-06T10:04:33.385Z,19.28
2018-05-06T10:07:00.905Z,19.41
2018-05-06T10:09:28.413Z,19.29
2018-05-06T10:11:55.900Z,19.06
2018-05-06T10:14:23.371Z,19.10
2018-05-06T10:16:50.869Z,19.08
2018-05-06T10:19:18.401Z,19.16
2018-05-06T10:21:45.880Z,19.31
2018-05-06T10:24:13.354Z,19.39
2018-05-06T10:26:40.842Z,19.67
2018-05-06T10:29:08.346Z,20.04
2018-05-06T10:31:35.887Z,20.22
2018-05-06T10:34:03.388Z,20.43
2018-05-06T10:36:30.883Z,20.43
2018-05-06T10:38:58.396Z,20.36
2018-05-06T10:41:25.910Z,20.09
2018-05-06T10:43:53.401Z,19.82
2018-05-06T10:46:20.890Z,19.80
2018-05-06T10:48:48.410Z,20.08
2018-05-06T10:51:15.892Z,20.07
2018-05-06T10:53:43.373Z,19.92
2018-05-06T10:56:10.903Z,19.96
2018-05-06T10:58:38.384Z,19.92
2018-05-06T11:01:05.857Z,19.88
2018-05-06T11:03:33.438Z,19.94
2018-05-06T11:06:00.891Z,20.07
2018-05-06T11:08:28.369Z,20.37
2018-05-06T11:10:55.855Z,20.40
2018-05-06T11:13:23.298Z,20.23
2018-05-06T11:15:50.782Z,20.13
2018-05-06T11:18:18.303Z,20.02
2018-05-06T11:20:45.786Z,20.24
2018-05-06T11:23:13.254Z,20.54
2018-05-06T11:25:40.709Z,20.57
2018-05-06T11:28:08.316Z,20.38
2018-05-06T11:30:35.769Z,20.30
2018-05-06T11:33:03.300Z,20.32
2018-05-06T11:35:30.893Z,20.34
2018-05-06T11:37:58.370Z,20.42
2018-05-06T11:40:25.861Z,20.54
2018-05-06T11:42:53.441Z,20.58
2018-05-06T11:45:21.057Z,20.48
2018-05-06T11:47:48.590Z,20.40
2018-05-06T11:50:16.073Z,20.40
2018-05-06T11:52:43.630Z,20.49
2018-05-06T11:55:11.175Z,20.72
2018-05-06T11:57:38.743Z,20.83
2018-05-06T12:00:06.245Z,20.65
2018-05-06T12:02:33.824Z,20.67
2018-05-06T12:05:01.283Z,20.67
2018-05-06T12:07:28.856Z,20.63
2018-05-06T12:09:56.404Z,20.77
2018-05-06T12:12:23.842Z,21.01
2018-05-06T12:14:51.337Z,21.22
2018-05-06T12:17:18.842Z,20.88
2018-05-06T12:19:46.323Z,20.90
2018-05-06T12:22:13.828Z,20.99
2018-05-06T12:24:41.345Z,20.90
2018-05-06T12:27:08.815Z,20.94
2018-05-06T12:29:36.280Z,20.91
2018-05-06T12:32:03.764Z,20.73
2018-05-06T12:34:31.235Z,20.88
2018-05-06T12:36:58.726Z,21.14
2018-05-06T12:39:26.243Z,21.27
2018-05-06T12:41:53.778Z,21.34
2018-05-06T12:44:21.303Z,21.41
2018-05-06T12:46:48.788Z,21.38
2018-05-06T12:49:16.354Z,21.34
2018-05-06T12:51:43.831Z,21.29
2018-05-06T12:54:11.279Z,21.27
2018-05-06T12:56:38.768Z,21.24
2018-05-06T12:59:06.257Z,21.42
2018-05-06T13:01:33.724Z,21.55
2018-05-06T13:04:01.216Z,21.62
2018-05-06T13:06:28.681Z,21.53
2018-05-06T13:08:56.154Z,21.36
2018-05-06T13:11:23.685Z,21.27
2018-05-06T13:13:51.240Z,21.35
2018-05-06T13:16:18.725Z,21.47
2018-05-06T13:18:46.203Z,21.54
2018-05-06T13:21:13.702Z,21.52
2018-05-06T13:23:41.254Z,21.55
2018-05-06T13:26:08.720Z,21.64
2018-05-06T13:28:36.207Z,21.68
2018-05-06T13:31:03.729Z,21.53
2018-05-06T13:33:31.216Z,21.55
2018-05-06T13:35:58.717Z,21.61
2018-05-06T13:38:26.168Z,21.64
2018-05-06T13:40:53.675Z,21.51
2018-05-06T13:43:21.179Z,21.71
2018-05-06T13:45:48.639Z,21.75
2018-05-06T13:48:16.111Z,21.53
2018-05-06T13:50:43.592Z,21.54
2018-05-06T13:53:11.095Z,21.64
2018-05-06T13:55:38.561Z,21.73
2018-05-06T13:58:06.088Z,21.69
2018-05-06T14:00:33.601Z,21.67
2018-05-06T14:03:01.192Z,21.59
2018-05-06T14:05:28.746Z,21.76
2018-05-06T14:07:56.240Z,21.82
2018-05-06T14:10:23.717Z,21.86
2018-05-06T14:12:51.191Z,21.97
2018-05-06T14:15:18.692Z,21.89
2018-05-06T14:17:46.251Z,21.93
2018-05-06T14:20:13.754Z,21.86
2018-05-06T14:22:41.241Z,21.98
2018-05-06T14:25:08.721Z,21.94
2018-05-06T14:27:36.293Z,22.08
2018-05-06T14:30:03.892Z,22.15
2018-05-06T14:32:31.268Z,22.42
2018-05-06T14:34:58.758Z,22.72
2018-05-06T14:37:26.249Z,22.85
2018-05-06T14:39:53.700Z,22.54
2018-05-06T14:42:21.205Z,22.47
2018-05-06T14:44:48.682Z,22.40
2018-05-06T14:50:22.241Z,22.70
2018-05-06T14:52:49.728Z,22.53
2018-05-06T14:55:17.175Z,22.68
2018-05-06T14:57:44.667Z,22.84
2018-05-06T15:00:12.156Z,22.89
2018-05-06T15:02:39.659Z,22.85
2018-05-06T15:05:07.157Z,22.70
2018-05-06T15:07:34.620Z,22.81
2018-05-06T15:10:02.115Z,23.06
2018-05-06T15:12:29.564Z,24.70
2018-05-06T15:14:57.061Z,26.38
2018-05-06T15:17:24.612Z,28.16
2018-05-06T15:19:52.159Z,28.96
2018-05-06T15:22:19.620Z,29.05
2018-05-06T15:24:47.118Z,29.35
2018-05-06T15:27:14.658Z,30.08
2018-05-06T15:29:42.127Z,30.63
2018-05-06T15:32:09.643Z,30.76
2018-05-06T15:34:37.122Z,30.92
2018-05-06T15:37:04.611Z,30.94
2018-05-06T15:39:32.091Z,30.87
2018-05-06T15:41:59.629Z,30.49
2018-05-06T15:44:27.110Z,30.56
2018-05-06T15:46:54.741Z,29.71
2018-05-06T15:49:22.264Z,28.74
2018-05-06T15:51:49.750Z,27.70
2018-05-06T15:54:17.233Z,27.52
2018-05-06T15:56:44.721Z,28.24
2018-05-06T15:59:12.287Z,28.59
2018-05-06T16:01:41.560Z,28.07
2018-05-06T16:04:17.531Z,27.68
2018-05-06T16:06:45.005Z,27.80
2018-05-06T16:09:12.448Z,27.54
2018-05-06T16:11:39.940Z,27.11
2018-05-06T16:14:07.442Z,28.24
2018-05-06T16:16:34.899Z,28.08
2018-05-06T16:19:02.392Z,28.24
2018-05-06T16:21:29.884Z,27.66
2018-05-06T16:23:57.388Z,26.34
2018-05-06T16:26:24.900Z,25.40
2018-05-06T16:28:52.380Z,24.19
2018-05-06T16:31:19.876Z,23.37
2018-05-06T16:33:47.431Z,22.98
2018-05-06T16:36:14.900Z,22.77
2018-05-06T16:38:42.401Z,22.65
2018-05-06T16:41:09.955Z,22.87
2018-05-06T16:43:37.467Z,22.71
2018-05-06T16:46:04.957Z,22.60
2018-05-06T16:48:32.511Z,22.38
2018-05-06T16:50:59.965Z,22.16
2018-05-06T16:53:27.408Z,21.96
2018-05-06T16:55:54.924Z,21.89
2018-05-06T16:58:22.391Z,21.72
2018-05-06T17:00:49.868Z,21.57
2018-05-06T17:03:17.379Z,21.53
2018-05-06T17:05:45.088Z,21.47
2018-05-06T17:08:12.592Z,21.40
2018-05-06T17:10:40.106Z,21.26
2018-05-06T17:13:07.587Z,21.17
2018-05-06T17:15:35.096Z,21.04
2018-05-06T17:18:02.610Z,20.96
2018-05-06T17:20:30.061Z,20.83
2018-05-06T17:22:57.544Z,20.77
2018-05-06T17:25:25.079Z,20.71
2018-05-06T17:27:52.567Z,20.69
2018-05-06T17:30:20.019Z,20.65
2018-05-06T17:32:47.540Z,20.57
2018-05-06T17:35:15.031Z,20.50
2018-05-06T17:37:42.512Z,20.43
2018-05-06T17:40:10.003Z,20.36
2018-05-06T17:42:37.489Z,20.29
2018-05-06T17:45:05.053Z,20.25
2018-05-06T17:47:32.563Z,20.21
2018-05-06T17:50:00.114Z,20.17
2018-05-06T17:52:27.516Z,20.14
2018-05-06T17:54:55.040Z,20.14
2018-05-06T17:57:22.514Z,20.08
2018-05-06T17:59:50.008Z,20.03
2018-05-06T18:02:17.523Z,20.00
2018-05-06T18:04:45.009Z,19.94
2018-05-06T18:07:12.479Z,19.90
2018-05-06T18:09:40.017Z,19.87
2018-05-06T18:12:07.498Z,19.83
2018-05-06T18:14:34.989Z,19.78
2018-05-06T18:17:02.467Z,19.74
2018-05-06T18:19:29.966Z,19.68
2018-05-06T18:21:57.507Z,19.64
2018-05-06T18:24:25.047Z,19.58
2018-05-06T18:26:52.504Z,19.53
2018-05-06T18:29:19.966Z,19.46
2018-05-06T18:31:47.467Z,19.40
2018-05-06T18:34:14.975Z,19.33
2018-05-06T18:36:42.439Z,19.28
2018-05-06T18:41:43.819Z,19.16
2018-05-06T18:44:11.369Z,19.12
2018-05-06T18:46:38.958Z,19.07
2018-05-06T18:49:06.497Z,18.99
2018-05-06T18:51:34.100Z,18.91
2018-05-06T18:54:01.612Z,18.86
2018-05-06T18:56:29.075Z,18.80
2018-05-06T18:58:56.608Z,18.78
2018-05-06T19:01:24.105Z,18.74
2018-05-06T19:03:51.598Z,18.72
2018-05-06T19:06:19.105Z,18.67
2018-05-06T19:08:46.565Z,18.61
2018-05-06T19:11:14.100Z,18.54
2018-05-06T19:13:41.668Z,18.51
2018-05-06T19:16:09.171Z,18.47
2018-05-06T19:18:36.683Z,18.42
2018-05-06T19:21:04.200Z,18.38
2018-05-06T19:23:31.707Z,18.35
2018-05-06T19:25:59.198Z,18.29
2018-05-06T19:28:26.786Z,18.25
2018-05-06T19:30:54.268Z,18.15
2018-05-06T19:33:21.716Z,18.09
2018-05-06T19:35:49.572Z,18.04
2018-05-06T19:38:17.097Z,18.02
2018-05-06T19:40:44.551Z,17.96
2018-05-06T19:43:12.036Z,17.91
2018-05-06T19:45:39.559Z,17.84
2018-05-06T19:48:07.075Z,17.77
2018-05-06T19:50:34.670Z,17.73
2018-05-06T19:53:02.162Z,17.67
2018-05-06T19:55:29.674Z,17.62
2018-05-06T19:57:57.203Z,17.62
2018-05-06T20:00:24.690Z,17.60
2018-05-06T20:02:52.185Z,17.56
2018-05-06T20:05:19.717Z,17.50
2018-05-06T20:07:47.172Z,17.42
2018-05-06T20:10:14.811Z,17.40
2018-05-06T20:12:42.722Z,17.35
2018-05-06T20:15:10.272Z,17.32
2018-05-06T20:17:37.840Z,17.28
2018-05-06T20:20:06.205Z,17.26
2018-05-06T20:22:33.704Z,17.24
2018-05-06T20:25:01.344Z,17.21
2018-05-06T20:27:28.796Z,17.19
2018-05-06T20:29:56.261Z,17.16
2018-05-06T20:32:23.811Z,17.15
2018-05-06T20:34:51.480Z,17.09
2018-05-06T20:37:18.996Z,17.05
2018-05-06T20:39:46.526Z,17.05
2018-05-06T20:42:14.021Z,16.97
2018-05-06T20:44:41.487Z,16.95
2018-05-06T20:47:09.573Z,16.92
2018-05-06T20:49:37.022Z,16.87
2018-05-06T20:52:04.445Z,16.82
2018-05-06T20:54:31.917Z,16.79
2018-05-06T20:56:59.348Z,16.75
2018-05-06T20:59:26.818Z,16.75
2018-05-06T21:01:54.345Z,16.71
2018-05-06T21:04:21.797Z,16.68
2018-05-06T21:06:49.218Z,16.67
2018-05-06T21:09:16.998Z,16.66
2018-05-06T21:11:44.454Z,16.64
2018-05-06T21:14:11.889Z,16.63
2018-05-06T21:16:39.457Z,16.56
2018-05-06T21:19:06.971Z,16.51
2018-05-06T21:21:34.424Z,16.45
2018-05-06T21:24:01.846Z,16.42
2018-05-06T21:26:29.289Z,16.38
2018-05-06T21:28:56.803Z,16.36
2018-05-06T21:31:24.311Z,16.33
2018-05-06T21:33:51.739Z,16.31
2018-05-06T21:36:19.343Z,16.31
2018-05-06T21:38:46.750Z,16.28
2018-05-06T21:41:14.203Z,16.23
2018-05-06T21:43:41.626Z,16.21
2018-05-06T21:46:09.058Z,16.23
2018-05-06T21:48:36.500Z,16.22
2018-05-06T21:51:03.954Z,16.21
2018-05-06T21:53:31.386Z,16.20
2018-05-06T21:55:58.838Z,16.19
2018-05-06T21:58:26.247Z,16.18
2018-05-06T22:00:53.706Z,16.17
2018-05-06T22:03:21.194Z,16.17
2018-05-06T22:05:48.609Z,16.14
2018-05-06T22:08:16.039Z,16.12
2018-05-06T22:10:43.506Z,16.10
2018-05-06T22:13:10.992Z,16.09
2018-05-06T22:15:38.447Z,16.12
2018-05-06T22:18:05.868Z,16.16
2018-05-06T22:20:33.319Z,16.09
2018-05-06T22:23:00.745Z,16.07
2018-05-06T22:25:28.195Z,16.01
2018-05-06T22:27:55.692Z,15.93
2018-05-06T22:30:23.162Z,15.84
2018-05-06T22:32:50.616Z,15.80
2018-05-06T22:35:18.135Z,15.74
2018-05-06T22:37:45.550Z,15.74
2018-05-06T22:40:13.013Z,15.65
2018-05-06T22:42:40.476Z,15.59
2018-05-06T22:45:07.925Z,15.52
2018-05-06T22:47:35.380Z,15.41
2018-05-06T22:50:02.856Z,15.46
2018-05-06T22:52:30.307Z,15.47
2018-05-06T22:54:57.756Z,15.42
2018-05-06T22:57:25.190Z,15.44
2018-05-06T22:59:52.645Z,15.38
2018-05-06T23:02:20.077Z,15.23
2018-05-06T23:04:47.497Z,15.07
2018-05-06T23:07:14.932Z,14.90
2018-05-06T23:09:42.346Z,14.79
2018-05-06T23:12:09.786Z,14.69
2018-05-06T23:14:37.202Z,14.64
2018-05-06T23:17:04.619Z,14.62
2018-05-06T23:19:32.157Z,14.58
2018-05-06T23:21:59.605Z,14.52
2018-05-06T23:24:27.052Z,14.46
2018-05-06T23:26:54.503Z,14.42
2018-05-06T23:29:22.000Z,14.37
2018-05-06T23:31:49.412Z,14.36
2018-05-06T23:34:16.858Z,14.33
2018-05-06T23:36:44.311Z,14.33
2018-05-06T23:39:11.775Z,14.31
2018-05-06T23:41:39.194Z,14.29
2018-05-06T23:44:06.660Z,14.25
2018-05-06T23:46:34.152Z,14.23
2018-05-06T23:49:01.597Z,14.19
2018-05-06T23:51:29.039Z,14.16
2018-05-06T23:53:56.524Z,14.11
2018-05-06T23:56:23.996Z,14.08
2018-05-06T23:58:51.403Z,14.04
